Time;durP1;ratioP1;P1;durP2;ratioP2;P2;SDS_P1;SDS_P2;PMS_P1;PMS_P2;Temp;Humidity;BMP_temperature;BMP_pressure;BME280_temperature;BME280_humidity;BME280_pressure;Samples;Min_cycle;Max_cycle;Signal;HPM_P1;HPM_P2
2023/11/02 00:02:33;;;;;;;25.10;17.10;;;;;;;5.60;79.03;99311.15;130811;1260;107696;-76
2023/11/02 00:06:22;;;;;;;21.30;13.80;;;;;;;5.61;78.68;99309.06;130728;1259;107319;-76
2023/11/02 00:09:41;;;;;;;21.30;13.60;;;;;;;5.62;78.91;99304.54;130642;1254;108239;-76
2023/11/02 00:12:47;;;;;;;21.50;13.80;;;;;;;5.62;78.74;99303.50;130718;1260;107530;-76
2023/11/02 00:15:53;;;;;;;22.20;13.30;;;;;;;5.60;78.72;99307.34;130607;1259;108701;-77
2023/11/02 00:18:59;;;;;;;21.60;13.60;;;;;;;5.59;78.68;99305.73;130659;1257;108410;-77
2023/11/02 00:22:09;;;;;;;19.20;13.10;;;;;;;5.56;78.98;99300.71;130678;1259;107165;-76
2023/11/02 00:25:44;;;;;;;15.90;11.00;;;;;;;5.53;79.08;99302.38;130570;1259;106594;-77
2023/11/02 00:28:50;;;;;;;19.10;11.50;;;;;;;5.52;79.06;99299.47;130737;1259;108724;-77
2023/11/02 00:31:57;;;;;;;17.50;11.90;;;;;;;5.54;79.50;99297.02;130661;1262;106418;-77
2023/11/02 00:35:03;;;;;;;19.40;13.40;;;;;;;5.59;79.24;99297.06;130594;1253;107861;-77
2023/11/02 00:38:10;;;;;;;20.00;13.40;;;;;;;5.63;79.45;99292.12;130591;1259;107875;-77
2023/11/02 00:41:16;;;;;;;23.50;16.10;;;;;;;5.66;79.63;99282.98;130772;1253;106956;-77
2023/11/02 00:44:23;;;;;;;31.30;21.40;;;;;;;5.68;79.92;99280.32;130676;1257;106921;-78
2023/11/02 00:47:28;;;;;;;52.20;35.90;;;;;;;5.69;79.69;99274.56;130659;1254;108360;-77
2023/11/02 00:51:03;;;;;;;31.50;23.00;;;;;;;5.69;79.83;99272.15;130709;1256;106561;-77
2023/11/02 00:54:29;;;;;;;19.90;12.60;;;;;;;5.68;79.89;99267.34;130660;1259;107076;-77
2023/11/02 00:57:40;;;;;;;14.80;9.70;;;;;;;5.66;79.78;99272.23;130649;1258;107299;-77
2023/11/02 01:01:05;;;;;;;22.80;15.60;;;;;;;5.66;79.81;99270.65;130745;1259;105972;-77
2023/11/02 01:04:48;;;;;;;21.20;14.00;;;;;;;5.68;79.92;99273.44;130803;1254;106874;-78
2023/11/02 01:07:54;;;;;;;20.70;13.30;;;;;;;5.73;80.17;99267.84;130714;1254;107722;-79
2023/11/02 01:11:01;;;;;;;20.00;12.70;;;;;;;5.77;80.24;99262.02;130822;1256;107053;-78
2023/11/02 01:14:31;;;;;;;18.50;12.70;;;;;;;5.80;80.71;99256.40;130807;1259;107575;-78
2023/11/02 01:17:38;;;;;;;19.10;11.70;;;;;;;5.82;80.70;99254.32;130843;1254;107660;-76
2023/11/02 01:20:59;;;;;;;14.70;10.20;;;;;;;5.82;80.89;99250.55;130665;1256;108709;-77
2023/11/02 01:24:10;;;;;;;16.80;11.20;;;;;;;5.82;81.25;99246.31;130787;1257;108697;-77
2023/11/02 01:27:23;;;;;;;19.40;11.70;;;;;;;5.84;80.79;99233.59;130737;1257;107074;-76
2023/11/02 01:31:14;;;;;;;18.80;11.70;;;;;;;5.88;81.38;99228.84;130741;1258;106933;-79
2023/11/02 01:34:23;;;;;;;20.20;12.70;;;;;;;5.95;81.54;99218.70;130914;1259;107763;-77
2023/11/02 01:37:30;;;;;;;17.00;10.90;;;;;;;5.99;81.62;99213.39;133944;1256;107001;-77
2023/11/02 01:40:41;;;;;;;16.80;11.20;;;;;;;6.02;81.74;99217.11;130841;1259;107866;-79
2023/11/02 01:43:56;;;;;;;14.80;8.80;;;;;;;6.03;82.07;99211.86;131057;1253;108757;-77
2023/11/02 01:47:10;;;;;;;14.20;8.30;;;;;;;6.05;81.99;99211.38;131157;1256;107635;-77
2023/11/02 01:50:25;;;;;;;16.40;10.40;;;;;;;6.05;81.84;99213.30;130805;1254;107604;-76
2023/11/02 01:53:50;;;;;;;17.20;9.90;;;;;;;6.07;82.13;99214.67;130748;1256;107782;-76
2023/11/02 01:57:04;;;;;;;14.30;10.10;;;;;;;6.10;82.18;99214.43;130817;1253;107518;-76
2023/11/02 02:00:15;;;;;;;16.30;10.90;;;;;;;6.13;82.15;99218.04;130654;1262;107194;-76
2023/11/02 02:03:29;;;;;;;15.40;9.70;;;;;;;6.11;82.03;99217.15;130690;1259;107188;-76
2023/11/02 02:06:47;;;;;;;15.50;10.10;;;;;;;6.08;82.24;99215.42;130602;1256;108760;-76
2023/11/02 02:10:11;;;;;;;15.40;8.80;;;;;;;6.05;82.13;99204.29;130751;1260;107617;-76
2023/11/02 02:13:29;;;;;;;12.70;8.60;;;;;;;6.02;82.40;99198.98;130737;1260;107671;-76
2023/11/02 02:16:41;;;;;;;18.70;12.70;;;;;;;6.03;82.60;99196.39;130712;1259;108597;-79
2023/11/02 02:19:54;;;;;;;;;;;;;;;6.05;82.44;99198.67;130836;1260;107600;-77
2023/11/02 02:23:08;;;;;;;17.80;10.80;;;;;;;6.05;82.32;99198.07;130695;1259;107658;-77
2023/11/02 02:26:40;;;;;;;15.60;9.60;;;;;;;6.04;82.02;99195.33;130634;1259;106474;-77
2023/11/02 02:30:11;;;;;;;14.00;9.50;;;;;;;6.02;82.28;99193.96;130647;1259;107089;-77
2023/11/02 02:33:51;;;;;;;14.80;9.70;;;;;;;5.98;81.82;99191.40;130737;1259;106255;-75
2023/11/02 02:37:07;;;;;;;15.90;10.00;;;;;;;5.94;81.81;99192.15;130761;1254;106229;-75
2023/11/02 02:40:19;;;;;;;13.30;9.40;;;;;;;5.88;81.88;99194.80;130704;1260;106619;-75
2023/11/02 02:43:26;;;;;;;12.70;8.10;;;;;;;5.82;81.69;99191.70;130725;1260;106383;-75
2023/11/02 02:46:33;;;;;;;16.00;9.20;;;;;;;5.75;81.95;99191.62;130699;1260;107586;-75
2023/11/02 02:49:43;;;;;;;20.60;10.50;;;;;;;5.72;81.62;99184.15;130709;1254;107721;-75
2023/11/02 02:52:50;;;;;;;16.60;9.50;;;;;;;5.71;81.67;99176.95;130732;1267;107862;-77
2023/11/02 02:56:02;;;;;;;31.10;17.40;;;;;;;5.74;82.02;99176.76;130818;1267;107686;-75
2023/11/02 02:59:11;;;;;;;27.30;15.30;;;;;;;5.73;82.12;99177.04;130801;1253;107784;-76
2023/11/02 03:02:17;;;;;;;22.50;13.40;;;;;;;5.70;81.97;99173.41;130825;1259;108708;-75
2023/11/02 03:05:23;;;;;;;17.60;10.50;;;;;;;5.66;81.82;99170.48;130667;1260;107692;-76
2023/11/02 03:08:31;;;;;;;17.10;10.10;;;;;;;5.61;81.55;99163.82;130720;1254;107738;-75
2023/11/02 03:11:38;;;;;;;16.70;10.30;;;;;;;5.58;81.84;99166.80;130748;1254;106383;-76
2023/11/02 03:14:45;;;;;;;14.60;10.10;;;;;;;5.51;81.89;99170.95;130672;1258;108227;-76
2023/11/02 03:18:03;;;;;;;14.10;8.30;;;;;;;5.45;81.57;99172.06;130668;1256;107662;-75
2023/11/02 03:21:09;;;;;;;16.40;8.90;;;;;;;5.40;81.36;99176.13;130701;1260;106760;-75
2023/11/02 03:24:22;;;;;;;15.70;8.90;;;;;;;5.37;81.57;99173.70;130744;1255;106583;-76
2023/11/02 03:27:42;;;;;;;13.90;8.40;;;;;;;5.39;81.44;99170.57;130866;1263;106558;-78
2023/11/02 03:31:01;;;;;;;14.50;8.60;;;;;;;5.36;81.22;99161.54;130740;1260;107847;-76
2023/11/02 03:34:13;;;;;;;14.40;7.90;;;;;;;5.34;81.48;99158.36;130751;1256;107701;-76
2023/11/02 03:37:24;;;;;;;13.40;7.80;;;;;;;5.33;81.82;99153.31;130706;1261;106928;-77
2023/11/02 03:40:39;;;;;;;15.70;9.80;;;;;;;5.31;81.73;99153.67;130795;1256;107050;-78
2023/11/02 03:43:56;;;;;;;14.40;9.40;;;;;;;5.27;81.67;99156.83;130955;1254;108514;-79
2023/11/02 03:47:15;;;;;;;14.60;9.00;;;;;;;5.22;81.32;99144.51;130681;1259;106782;-78
2023/11/02 03:50:34;;;;;;;14.70;8.20;;;;;;;5.18;81.64;99143.27;131429;1253;108388;-79
2023/11/02 03:53:51;;;;;;;15.70;8.70;;;;;;;5.17;81.67;99139.48;130727;1256;106281;-78
2023/11/02 03:57:12;;;;;;;14.40;7.30;;;;;;;5.19;81.46;99141.39;130736;1267;106525;-78
2023/11/02 04:00:22;;;;;;;13.00;7.70;;;;;;;5.22;81.97;99135.48;130615;1256;107728;-79
2023/11/02 04:03:32;;;;;;;14.70;8.60;;;;;;;5.25;81.89;99132.77;130667;1259;108522;-79
2023/11/02 04:06:45;;;;;;;16.00;9.30;;;;;;;5.25;82.04;99133.60;130804;1256;107730;-79
2023/11/02 04:09:58;;;;;;;15.90;9.90;;;;;;;5.25;81.95;99131.13;130713;1258;107489;-78
2023/11/02 04:13:23;;;;;;;11.60;8.00;;;;;;;5.25;81.95;99129.73;130774;1257;106915;-79
2023/11/02 04:16:29;;;;;;;13.60;8.00;;;;;;;5.24;82.24;99130.35;130826;1267;108697;-81
2023/11/02 04:19:34;;;;;;;15.30;9.10;;;;;;;5.25;82.58;99132.04;130772;1267;107678;-81
2023/11/02 04:22:40;;;;;;;12.10;7.50;;;;;;;5.27;82.65;99128.10;130866;1259;106915;-80
2023/11/02 04:25:45;;;;;;;11.10;6.50;;;;;;;5.31;82.77;99115.92;130816;1266;107800;-80
2023/11/02 04:28:51;;;;;;;12.20;8.30;;;;;;;5.36;83.05;99112.61;130872;1257;107476;-80
2023/11/02 04:31:57;;;;;;;15.90;9.90;;;;;;;5.39;83.08;99108.27;130840;1263;107130;-81
2023/11/02 04:35:05;;;;;;;21.80;12.70;;;;;;;5.41;82.93;99110.01;130809;1264;107475;-80
2023/11/02 04:38:11;;;;;;;28.80;16.30;;;;;;;5.40;82.99;99113.48;130907;1264;107693;-81
2023/11/02 04:41:17;;;;;;;15.80;10.60;;;;;;;5.39;82.69;99111.33;130811;1257;108581;-80
2023/11/02 04:44:23;;;;;;;12.50;7.00;;;;;;;5.36;82.98;99108.39;130838;1267;108133;-80
2023/11/02 04:47:28;;;;;;;15.20;8.50;;;;;;;5.35;83.12;99104.48;130809;1269;107471;-80
2023/11/02 04:50:34;;;;;;;13.90;8.40;;;;;;;5.37;83.04;99101.64;130722;1269;108853;-79
2023/11/02 04:53:39;;;;;;;11.70;7.20;;;;;;;5.40;83.24;99098.14;130715;1266;107591;-80
2023/11/02 04:56:45;;;;;;;12.30;7.00;;;;;;;5.44;83.03;99093.85;130672;1267;107647;-80
2023/11/02 04:59:50;;;;;;;12.60;7.40;;;;;;;5.51;83.42;99089.30;130690;1263;108397;-79
2023/11/02 05:02:56;;;;;;;11.40;7.40;;;;;;;5.55;83.29;99084.54;130685;1259;108463;-78
2023/11/02 05:06:02;;;;;;;12.20;7.80;;;;;;;5.57;83.33;99082.43;130706;1260;107485;-79
2023/11/02 05:09:08;;;;;;;13.00;7.90;;;;;;;5.57;83.55;99081.04;130628;1258;106928;-78
2023/11/02 05:12:13;;;;;;;19.70;14.60;;;;;;;5.58;83.84;99081.45;130657;1259;106658;-79
2023/11/02 05:15:19;;;;;;;12.80;8.60;;;;;;;5.57;83.88;99084.68;130680;1257;107735;-79
2023/11/02 05:18:25;;;;;;;13.20;9.30;;;;;;;5.55;83.89;99085.39;130577;1255;107752;-78
2023/11/02 05:21:31;;;;;;;10.30;6.20;;;;;;;5.57;83.97;99085.44;130715;1267;106448;-79
2023/11/02 05:24:36;;;;;;;10.20;6.30;;;;;;;5.61;84.13;99079.59;130707;1260;108380;-79
2023/11/02 05:27:42;;;;;;;17.40;13.30;;;;;;;5.67;84.11;99070.48;130735;1257;107702;-78
2023/11/02 05:30:48;;;;;;;10.20;6.70;;;;;;;5.71;84.33;99055.41;130720;1256;106790;-78
2023/11/02 05:33:55;;;;;;;9.60;7.30;;;;;;;5.76;84.25;99052.70;130596;1264;107662;-78
2023/11/02 05:37:01;;;;;;;10.20;7.50;;;;;;;5.78;84.29;99058.45;130618;1257;108076;-79
2023/11/02 05:40:09;;;;;;;11.90;6.60;;;;;;;5.77;84.07;99060.52;130576;1260;105555;-78
2023/11/02 05:43:14;;;;;;;9.70;6.40;;;;;;;5.74;84.16;99059.25;130610;1260;106644;-78
2023/11/02 05:46:20;;;;;;;8.00;5.80;;;;;;;5.71;83.72;99051.54;130652;1255;107644;-77
2023/11/02 05:49:26;;;;;;;8.50;6.00;;;;;;;5.67;83.98;99045.77;130717;1258;107489;-77
2023/11/02 05:52:32;;;;;;;8.30;6.00;;;;;;;5.66;83.76;99039.39;130717;1260;106481;-77
2023/11/02 05:55:38;;;;;;;8.90;5.90;;;;;;;5.66;83.99;99037.02;130707;1267;107743;-78
2023/11/02 05:58:45;;;;;;;7.90;5.30;;;;;;;5.68;83.95;99030.81;130764;1254;106406;-78
2023/11/02 06:01:51;;;;;;;9.20;5.70;;;;;;;5.71;83.78;99033.77;130777;1266;106923;-75
2023/11/02 06:04:56;;;;;;;10.30;5.50;;;;;;;5.71;83.66;99035.10;130717;1254;106803;-75
2023/11/02 06:08:02;;;;;;;10.80;5.50;;;;;;;5.73;83.76;99032.31;130751;1260;107316;-76
2023/11/02 06:11:08;;;;;;;8.90;5.50;;;;;;;5.76;83.78;99030.61;130705;1254;107031;-75
2023/11/02 06:14:13;;;;;;;7.10;5.00;;;;;;;5.78;83.91;99028.12;130680;1263;109351;-75
2023/11/02 06:17:19;;;;;;;8.50;5.60;;;;;;;5.80;83.63;99030.77;130627;1256;107503;-74
2023/11/02 06:20:24;;;;;;;7.90;4.80;;;;;;;5.79;83.55;99032.18;130693;1257;107718;-75
2023/11/02 06:23:30;;;;;;;8.80;6.30;;;;;;;5.84;83.67;99029.81;130652;1260;106336;-74
2023/11/02 06:26:36;;;;;;;8.90;5.80;;;;;;;5.90;83.87;99023.59;130784;1257;108503;-74
2023/11/02 06:29:41;;;;;;;8.90;6.10;;;;;;;5.95;83.38;99019.53;130763;1257;107689;-74
2023/11/02 06:32:47;;;;;;;7.70;5.90;;;;;;;6.00;83.74;99015.18;130815;1254;107545;-74
2023/11/02 06:35:52;;;;;;;7.90;5.70;;;;;;;6.04;83.85;99011.60;130657;1267;109146;-74
2023/11/02 06:38:58;;;;;;;8.00;5.90;;;;;;;6.09;84.33;99004.55;130641;1257;107610;-76
2023/11/02 06:42:05;;;;;;;8.60;5.40;;;;;;;6.16;84.83;99005.29;130744;1258;107079;-76
2023/11/02 06:45:11;;;;;;;175.10;110.00;;;;;;;6.23;84.89;99000.54;130725;1257;106558;-76
2023/11/02 06:48:17;;;;;;;345.10;232.60;;;;;;;6.32;84.95;98993.80;130732;1254;107658;-74
2023/11/02 06:51:23;;;;;;;133.60;103.20;;;;;;;6.46;85.29;98990.40;130699;1267;107770;-74
2023/11/02 06:54:29;;;;;;;100.30;77.70;;;;;;;6.62;85.56;98988.15;130728;1268;106126;-74
2023/11/02 06:57:34;;;;;;;41.60;34.90;;;;;;;6.80;85.48;98995.21;130656;1257;106717;-74
2023/11/02 07:00:40;;;;;;;59.00;52.90;;;;;;;6.94;85.51;98989.14;130691;1267;108681;-75
2023/11/02 07:03:46;;;;;;;42.90;38.40;;;;;;;7.04;85.75;98981.55;130802;1256;107269;-75
2023/11/02 07:06:52;;;;;;;78.30;70.50;;;;;;;7.11;85.70;98970.17;130829;1257;107753;-75
2023/11/02 07:09:57;;;;;;;336.40;261.60;;;;;;;7.16;85.91;98965.10;130713;1260;107574;-74
2023/11/02 07:13:03;;;;;;;262.40;233.10;;;;;;;7.21;86.23;98968.95;130707;1255;107789;-74
2023/11/02 07:16:10;;;;;;;89.70;78.20;;;;;;;7.31;86.18;98969.50;130804;1255;106693;-74
2023/11/02 07:19:16;;;;;;;44.20;37.00;;;;;;;7.49;86.50;98972.58;130754;1254;106512;-74
2023/11/02 07:22:22;;;;;;;33.40;29.80;;;;;;;7.68;86.61;98971.78;130784;1258;107198;-74
2023/11/02 07:25:27;;;;;;;23.40;20.00;;;;;;;7.81;86.42;98968.73;130770;1259;106459;-74
2023/11/02 07:28:33;;;;;;;15.10;11.10;;;;;;;7.90;86.29;98971.80;130752;1257;109170;-75
2023/11/02 07:31:41;;;;;;;192.90;156.60;;;;;;;7.97;86.45;98966.13;130728;1254;107356;-75
2023/11/02 07:34:47;;;;;;;51.20;44.80;;;;;;;8.05;86.59;98959.97;130761;1255;107837;-75
2023/11/02 07:37:53;;;;;;;83.80;74.10;;;;;;;8.16;86.50;98952.70;130754;1257;106689;-75
2023/11/02 07:40:58;;;;;;;44.10;36.60;;;;;;;8.28;86.47;98943.58;130678;1255;107653;-74
2023/11/02 07:44:04;;;;;;;25.20;20.00;;;;;;;8.38;86.61;98933.21;130714;1257;106576;-77
2023/11/02 07:47:10;;;;;;;15.70;13.30;;;;;;;8.45;86.48;98927.73;130660;1259;106327;-75
2023/11/02 07:50:16;;;;;;;30.10;26.80;;;;;;;8.52;86.45;98925.22;130783;1255;106430;-75
2023/11/02 07:53:22;;;;;;;48.50;43.20;;;;;;;8.57;86.63;98925.63;130699;1259;107437;-74
2023/11/02 07:56:28;;;;;;;254.30;214.70;;;;;;;8.61;86.55;98929.60;130706;1258;106819;-75
2023/11/02 07:59:33;;;;;;;100.60;89.70;;;;;;;8.71;86.48;98921.84;130775;1267;106493;-75
2023/11/02 08:02:39;;;;;;;27.00;21.70;;;;;;;8.84;86.56;98915.13;130722;1257;106864;-75
2023/11/02 08:05:44;;;;;;;39.80;32.80;;;;;;;8.99;86.54;98909.52;130625;1267;107799;-75
2023/11/02 08:08:50;;;;;;;40.70;34.60;;;;;;;9.14;86.39;98900.28;130636;1267;106745;-74
2023/11/02 08:11:57;;;;;;;54.80;47.40;;;;;;;9.26;86.42;98899.11;130624;1258;107727;-74
2023/11/02 08:15:03;;;;;;;34.60;28.50;;;;;;;9.35;86.39;98888.37;130600;1258;108569;-75
2023/11/02 08:18:09;;;;;;;11.10;8.10;;;;;;;9.46;86.56;98880.59;130574;1267;107710;-74
2023/11/02 08:21:14;;;;;;;38.00;32.20;;;;;;;9.57;86.36;98873.60;130626;1267;106756;-77
2023/11/02 08:24:20;;;;;;;35.90;30.50;;;;;;;9.71;86.36;98871.79;130591;1260;108345;-77
2023/11/02 08:27:28;;;;;;;65.30;58.60;;;;;;;9.86;86.22;98867.90;130616;1269;105652;-75
2023/11/02 08:30:33;;;;;;;43.90;39.40;;;;;;;9.95;85.69;98860.48;130555;1260;108641;-74
2023/11/02 08:33:40;;;;;;;73.10;65.70;;;;;;;10.02;85.67;98863.10;130535;1254;107732;-75
2023/11/02 08:36:45;;;;;;;38.10;32.90;;;;;;;10.07;85.61;98854.67;130560;1260;107455;-74
2023/11/02 08:39:51;;;;;;;121.80;98.50;;;;;;;10.10;85.47;98848.98;130586;1257;108450;-75
2023/11/02 08:42:56;;;;;;;91.90;72.80;;;;;;;10.13;85.67;98847.94;130607;1254;106487;-75
2023/11/02 08:46:02;;;;;;;103.80;85.30;;;;;;;10.18;85.48;98838.58;130548;1254;106714;-75
2023/11/02 08:49:08;;;;;;;19.90;13.40;;;;;;;10.26;85.52;98837.12;130559;1254;109345;-75
2023/11/02 08:52:13;;;;;;;10.60;7.50;;;;;;;10.34;85.53;98832.25;130577;1258;107727;-74
2023/11/02 08:55:19;;;;;;;21.00;18.90;;;;;;;10.42;85.63;98831.45;130583;1254;108357;-75
2023/11/02 08:58:25;;;;;;;38.00;34.10;;;;;;;10.50;85.32;98823.57;130574;1259;107678;-76
2023/11/02 09:01:32;;;;;;;14.60;11.30;;;;;;;10.57;84.97;98824.31;130536;1259;106785;-75
2023/11/02 09:04:37;;;;;;;37.40;33.50;;;;;;;10.61;84.70;98815.45;130648;1254;106893;-76
2023/11/02 09:07:43;;;;;;;36.20;31.00;;;;;;;10.63;84.96;98810.05;130692;1253;106836;-76
2023/11/02 09:10:51;;;;;;;12.30;11.00;;;;;;;10.70;84.85;98806.79;130671;1257;106070;-76
2023/11/02 09:13:57;;;;;;;7.60;6.40;;;;;;;10.81;84.51;98800.55;130655;1254;106655;-77
2023/11/02 09:17:03;;;;;;;17.30;15.50;;;;;;;10.93;84.57;98794.80;130683;1257;108693;-75
2023/11/02 09:20:11;;;;;;;22.00;19.10;;;;;;;11.07;84.47;98798.45;130677;1259;106909;-76
2023/11/02 09:23:17;;;;;;;14.70;11.50;;;;;;;11.16;84.40;98794.70;130733;1267;107753;-75
2023/11/02 09:26:23;;;;;;;8.00;6.00;;;;;;;11.24;84.31;98791.28;130722;1266;106802;-75
2023/11/02 09:29:28;;;;;;;7.30;5.60;;;;;;;11.30;84.08;98789.61;130805;1256;107708;-75
2023/11/02 09:32:34;;;;;;;9.70;7.10;;;;;;;11.34;84.17;98784.83;130674;1258;107374;-75
2023/11/02 09:35:40;;;;;;;12.20;8.00;;;;;;;11.35;83.70;98780.39;130727;1254;106310;-76
2023/11/02 09:38:46;;;;;;;62.80;56.30;;;;;;;11.36;83.89;98768.89;130727;1257;107520;-75
2023/11/02 09:41:51;;;;;;;13.00;8.60;;;;;;;11.43;83.88;98763.27;130713;1254;107925;-75
2023/11/02 09:44:57;;;;;;;7.00;6.20;;;;;;;11.52;83.79;98757.62;130677;1267;106901;-76
2023/11/02 09:48:03;;;;;;;6.20;5.10;;;;;;;11.61;83.78;98747.23;130707;1254;107482;-75
2023/11/02 09:51:09;;;;;;;8.20;6.60;;;;;;;11.69;83.61;98740.04;130660;1257;108184;-75
2023/11/02 09:54:15;;;;;;;6.60;5.00;;;;;;;11.74;83.58;98737.36;130741;1257;106688;-75
2023/11/02 09:57:21;;;;;;;11.60;10.40;;;;;;;11.79;83.37;98736.19;130693;1254;107117;-75
2023/11/02 10:00:28;;;;;;;9.90;7.30;;;;;;;11.83;83.20;98736.42;130720;1257;107713;-75
2023/11/02 10:03:33;;;;;;;8.30;5.20;;;;;;;11.85;83.06;98737.29;130745;1257;107089;-75
2023/11/02 10:06:39;;;;;;;4.60;3.00;;;;;;;11.87;83.15;98734.66;130797;1257;106835;-75
2023/11/02 10:09:45;;;;;;;25.00;22.50;;;;;;;11.93;82.86;98725.56;130685;1257;106301;-76
2023/11/02 10:12:50;;;;;;;17.00;15.30;;;;;;;12.01;82.84;98723.73;130733;1254;108653;-75
2023/11/02 10:15:56;;;;;;;26.40;23.90;;;;;;;12.10;82.55;98714.02;130629;1257;106580;-76
2023/11/02 10:19:02;;;;;;;67.20;60.70;;;;;;;12.16;82.87;98708.57;130695;1257;108571;-74
2023/11/02 10:22:08;;;;;;;27.60;24.40;;;;;;;12.22;82.79;98699.48;130661;1257;108175;-75
2023/11/02 10:25:15;;;;;;;10.20;8.70;;;;;;;12.26;82.52;98700.90;130680;1257;107735;-75
2023/11/02 10:28:22;;;;;;;50.10;45.10;;;;;;;12.29;82.68;98695.52;130681;1257;107107;-75
2023/11/02 10:31:30;;;;;;;28.50;25.50;;;;;;;12.33;82.11;98688.57;130655;1258;107880;-76
2023/11/02 10:34:37;;;;;;;35.90;32.00;;;;;;;12.37;82.54;98689.11;130680;1254;108525;-76
2023/11/02 10:37:43;;;;;;;21.20;19.10;;;;;;;12.41;82.28;98679.52;130624;1256;107396;-76
2023/11/02 10:40:50;;;;;;;48.30;43.50;;;;;;;12.47;82.12;98675.41;130707;1253;107140;-76
2023/11/02 10:43:58;;;;;;;117.10;105.20;;;;;;;12.58;82.13;98667.04;130543;1260;200273;-75
2023/11/02 10:47:07;;;;;;;241.20;203.30;;;;;;;12.69;81.98;98663.45;130747;1254;106870;-75
2023/11/02 10:50:18;;;;;;;91.50;77.10;;;;;;;12.77;81.29;98655.23;130683;1256;107685;-75
2023/11/02 10:53:38;;;;;;;36.90;33.00;;;;;;;12.84;81.62;98646.81;130665;1254;107842;-75
2023/11/02 10:56:48;;;;;;;71.10;63.90;;;;;;;12.88;81.32;98638.98;130654;1257;107699;-75
2023/11/02 10:59:54;;;;;;;47.50;42.70;;;;;;;12.89;81.35;98637.74;130720;1258;107709;-75
2023/11/02 11:03:01;;;;;;;101.20;90.70;;;;;;;12.89;81.22;98639.80;130796;1258;107226;-75
2023/11/02 11:06:11;;;;;;;30.00;26.00;;;;;;;12.89;81.02;98637.34;130718;1257;107531;-75
2023/11/02 11:09:17;;;;;;;164.40;144.10;;;;;;;12.88;80.53;98629.64;130732;1256;107508;-75
2023/11/02 11:12:24;;;;;;;103.20;90.10;;;;;;;12.89;80.53;98632.97;130624;1254;106950;-75
2023/11/02 11:15:30;;;;;;;29.60;23.50;;;;;;;12.94;80.75;98633.29;130741;1254;107906;-75
2023/11/02 11:18:37;;;;;;;75.30;66.10;;;;;;;13.02;80.53;98628.05;130660;1258;107712;-76
2023/11/02 11:21:44;;;;;;;27.60;23.20;;;;;;;13.08;80.47;98623.55;130702;1265;107691;-76
2023/11/02 11:24:57;;;;;;;29.10;26.40;;;;;;;13.13;80.55;98617.81;130709;1257;107301;-76
2023/11/02 11:28:22;;;;;;;14.30;12.70;;;;;;;13.18;80.44;98604.53;130712;1257;107208;-77
2023/11/02 11:31:53;;;;;;;8.00;7.20;;;;;;;13.20;80.25;98599.99;130671;1253;107917;-76
2023/11/02 11:35:12;;;;;;;7.10;5.60;;;;;;;13.21;80.27;98588.20;130776;1259;108101;-77
2023/11/02 11:38:38;;;;;;;6.00;4.80;;;;;;;13.22;80.17;98579.39;130703;1265;107720;-75
2023/11/02 11:41:45;;;;;;;15.20;12.10;;;;;;;13.23;79.94;98575.88;130664;1260;106871;-76
2023/11/02 11:45:27;;;;;;;74.60;61.90;;;;;;;13.23;79.75;98573.65;130947;1256;106536;-76
2023/11/02 11:48:41;;;;;;;28.80;25.00;;;;;;;13.25;80.09;98571.71;130675;1257;107536;-75
2023/11/02 11:51:49;;;;;;;27.80;23.70;;;;;;;13.32;79.80;98567.21;130676;1254;107903;-76
2023/11/02 11:54:55;;;;;;;13.80;9.80;;;;;;;13.43;79.90;98569.20;130664;1257;106565;-75
2023/11/02 11:58:02;;;;;;;25.90;22.90;;;;;;;13.53;79.46;98564.20;130740;1254;107818;-75
2023/11/02 12:01:18;;;;;;;14.80;11.20;;;;;;;13.62;79.95;98556.73;130677;1256;107764;-76
2023/11/02 12:04:48;;;;;;;13.10;10.50;;;;;;;13.70;79.89;98555.00;130737;1258;108689;-75
2023/11/02 12:08:01;;;;;;;13.80;10.00;;;;;;;13.73;79.49;98548.83;130698;1260;108078;-77
2023/11/02 12:11:07;;;;;;;21.70;18.40;;;;;;;13.74;79.44;98541.16;130707;1256;107588;-77
2023/11/02 12:14:19;;;;;;;26.80;22.30;;;;;;;13.76;79.19;98540.12;130667;1256;106693;-77
2023/11/02 12:17:24;;;;;;;16.50;14.70;;;;;;;13.77;79.31;98538.77;130518;1256;108670;-77
2023/11/02 12:20:37;;;;;;;11.20;9.00;;;;;;;13.77;78.97;98532.54;130759;1257;108755;-77
2023/11/02 12:23:44;;;;;;;10.80;8.70;;;;;;;13.75;78.97;98527.71;130635;1258;105473;-75
2023/11/02 12:26:49;;;;;;;29.10;22.10;;;;;;;13.76;79.21;98523.30;130759;1257;106808;-75
2023/11/02 12:29:59;;;;;;;32.90;25.60;;;;;;;13.81;79.30;98520.41;130699;1253;107971;-75
2023/11/02 12:33:04;;;;;;;136.70;91.20;;;;;;;13.89;79.48;98512.56;130727;1257;107480;-77
2023/11/02 12:36:11;;;;;;;98.50;57.20;;;;;;;13.96;79.06;98513.88;130678;1258;107741;-78
2023/11/02 12:39:20;;;;;;;34.30;26.80;;;;;;;14.02;78.62;98506.58;130779;1257;107377;-77
2023/11/02 12:42:26;;;;;;;18.30;13.10;;;;;;;14.06;78.96;98504.02;130614;1253;107320;-77
2023/11/02 12:45:32;;;;;;;12.70;9.50;;;;;;;14.08;78.77;98500.11;130711;1257;106597;-77
2023/11/02 12:48:40;;;;;;;8.60;5.90;;;;;;;14.07;78.45;98491.96;130760;1257;107518;-75
2023/11/02 12:51:47;;;;;;;10.90;9.30;;;;;;;14.08;78.36;98494.69;130646;1257;106518;-77
2023/11/02 12:54:59;;;;;;;7.70;5.90;;;;;;;14.08;78.62;98492.86;130696;1256;106829;-77
2023/11/02 12:58:04;;;;;;;12.40;10.60;;;;;;;14.06;78.56;98488.09;130621;1254;107412;-77
2023/11/02 13:01:10;;;;;;;14.90;13.40;;;;;;;14.04;78.34;98481.67;130733;1256;107525;-77
2023/11/02 13:04:16;;;;;;;15.30;13.70;;;;;;;14.01;78.74;98483.64;130624;1254;107934;-76
2023/11/02 13:07:27;;;;;;;37.50;33.80;;;;;;;14.00;78.54;98480.48;130666;1267;107633;-77
2023/11/02 13:10:42;;;;;;;13.70;12.40;;;;;;;14.01;78.53;98480.84;130676;1256;107028;-77
2023/11/02 13:13:47;;;;;;;17.60;15.90;;;;;;;14.05;78.37;98474.53;130729;1256;106976;-77
2023/11/02 13:16:55;;;;;;;10.70;9.30;;;;;;;14.10;78.20;98471.27;130644;1256;106069;-76
2023/11/02 13:20:00;;;;;;;16.10;14.20;;;;;;;14.15;78.35;98470.61;130703;1254;107715;-76
2023/11/02 13:23:07;;;;;;;10.00;8.60;;;;;;;14.19;78.07;98473.42;130695;1254;107511;-76
2023/11/02 13:26:15;;;;;;;83.20;66.90;;;;;;;14.18;77.86;98476.42;130617;1257;107866;-75
2023/11/02 13:29:21;;;;;;;174.80;140.40;;;;;;;14.14;77.38;98476.39;130651;1256;107685;-76
2023/11/02 13:32:26;;;;;;;199.20;148.50;;;;;;;14.10;77.33;98475.39;130953;1254;107832;-77
2023/11/02 13:35:32;;;;;;;85.90;64.20;;;;;;;14.06;77.23;98470.60;130715;1256;106917;-76
2023/11/02 13:38:38;;;;;;;119.60;107.30;;;;;;;14.01;76.90;98465.57;130603;1257;108546;-76
2023/11/02 13:41:44;;;;;;;45.90;40.90;;;;;;;13.96;76.75;98462.77;130772;1254;107537;-76
2023/11/02 13:44:49;;;;;;;61.30;55.00;;;;;;;13.91;76.43;98463.54;130913;1253;107400;-77
2023/11/02 13:47:55;;;;;;;62.90;56.50;;;;;;;13.87;76.28;98454.96;130587;1257;106603;-75
2023/11/02 13:51:02;;;;;;;20.30;17.30;;;;;;;13.81;76.26;98453.10;130640;1256;106444;-76
2023/11/02 13:54:28;;;;;;;57.70;51.50;;;;;;;13.73;76.17;98454.15;130790;1257;108219;-77
2023/11/02 14:03:27;;;;;;;29.90;26.80;;;;;;;13.48;76.14;98445.17;131376;1255;109023;-78
2023/11/02 14:06:55;;;;;;;21.90;19.70;;;;;;;13.38;76.14;98453.04;130854;1258;108601;-76
2023/11/02 14:10:13;;;;;;;20.10;17.80;;;;;;;13.28;76.28;98450.11;130781;1259;107760;-77
2023/11/02 14:13:22;;;;;;;32.00;28.30;;;;;;;13.22;76.31;98443.83;131058;1256;106603;-78
2023/11/02 14:17:22;;;;;;;25.60;23.10;;;;;;;13.19;76.45;98438.31;130767;1256;108351;-76
2023/11/02 14:21:27;;;;;;;38.80;34.70;;;;;;;13.15;76.26;98432.03;130711;1259;108330;-77
2023/11/02 14:28:55;;;;;;;11.00;8.50;;;;;;;13.03;76.20;98417.23;130628;1259;107351;-78
2023/11/02 14:32:10;;;;;;;13.30;9.90;;;;;;;12.95;76.40;98421.93;130734;1256;107052;-78
2023/11/02 14:35:19;;;;;;;10.40;8.80;;;;;;;12.86;76.31;98418.25;130529;1259;107777;-77